Time;durP1;ratioP1;P1;durP2;ratioP2;P2;SDS_P1;SDS_P2;PMS_P1;PMS_P2;Temp;Humidity;BMP_temperature;BMP_pressure;BME280_temperature;BME280_humidity;BME280_pressure;Samples;Min_cycle;Max_cycle;Signal;HPM_P1;HPM_P2
2022/03/26 00:01:04;;;;;;;36.40;20.45;;;5.20;99.90;;;;;;4936174;29;20416;-86
2022/03/26 00:03:32;;;;;;;35.90;20.97;;;5.20;99.90;;;;;;4936307;29;20825;-86
2022/03/26 00:06:00;;;;;;;36.72;21.60;;;5.30;99.90;;;;;;4936460;29;20425;-86
2022/03/26 00:08:28;;;;;;;34.03;20.85;;;5.30;99.90;;;;;;4920579;29;20398;-86
2022/03/26 00:10:56;;;;;;;33.13;20.88;;;5.30;99.90;;;;;;4936133;29;20482;-85
2022/03/26 00:13:23;;;;;;;35.10;21.80;;;5.20;99.90;;;;;;4936466;29;20804;-86
2022/03/26 00:15:51;;;;;;;36.30;21.45;;;5.10;99.90;;;;;;4920592;29;20404;-86
2022/03/26 00:18:19;;;;;;;35.78;21.00;;;5.10;99.90;;;;;;4936123;29;20521;-86
2022/03/26 00:20:46;;;;;;;37.38;21.55;;;5.00;99.90;;;;;;4935890;29;20413;-84
2022/03/26 00:23:14;;;;;;;36.03;20.92;;;5.10;99.90;;;;;;4920335;29;20398;-86
2022/03/26 00:25:42;;;;;;;38.60;22.65;;;5.00;99.90;;;;;;4920200;29;20398;-85
2022/03/26 00:28:09;;;;;;;37.58;22.10;;;5.00;99.90;;;;;;4935831;29;20417;-85
2022/03/26 00:30:37;;;;;;;35.70;23.17;;;5.00;99.90;;;;;;4935951;29;20777;-85
2022/03/26 00:33:05;;;;;;;36.00;21.98;;;5.00;99.90;;;;;;4920085;29;20398;-85
2022/03/26 00:35:33;;;;;;;37.40;22.55;;;5.00;99.90;;;;;;4919962;29;20402;-86
2022/03/26 00:38:00;;;;;;;37.95;23.50;;;5.00;99.90;;;;;;4920206;29;20852;-85
2022/03/26 00:40:28;;;;;;;37.15;22.80;;;5.00;99.90;;;;;;4935609;29;20438;-85
2022/03/26 00:42:55;;;;;;;37.33;22.50;;;4.90;99.90;;;;;;4936871;29;20398;-85
2022/03/26 00:45:24;;;;;;;38.50;23.33;;;4.90;99.90;;;;;;4935650;29;20418;-86
2022/03/26 00:47:51;;;;;;;39.42;22.77;;;4.90;99.90;;;;;;4935647;29;20445;-85
2022/03/26 00:50:19;;;;;;;40.25;24.98;;;4.80;99.90;;;;;;4935364;29;20417;-86
2022/03/26 00:52:47;;;;;;;38.58;24.02;;;4.80;99.90;;;;;;4936552;29;20734;-86
2022/03/26 00:55:15;;;;;;;41.95;25.35;;;4.90;99.90;;;;;;4933588;29;20409;-86
2022/03/26 00:57:43;;;;;;;40.35;23.95;;;4.80;99.90;;;;;;4932261;29;20407;-85
2022/03/26 01:00:12;;;;;;;39.13;23.63;;;4.80;99.90;;;;;;4916485;29;20924;-86
2022/03/26 01:02:39;;;;;;;39.10;24.27;;;4.80;99.90;;;;;;4916455;29;20451;-85
2022/03/26 01:05:08;;;;;;;40.38;24.67;;;4.80;99.90;;;;;;4900728;29;20507;-85
2022/03/26 01:07:35;;;;;;;39.93;24.83;;;4.80;99.90;;;;;;4916260;29;20411;-86
2022/03/26 01:10:04;;;;;;;41.95;25.40;;;4.70;99.90;;;;;;4916301;29;20448;-85
2022/03/26 01:12:32;;;;;;;41.15;27.45;;;4.70;99.90;;;;;;4900654;29;20567;-86
2022/03/26 01:15:00;;;;;;;41.42;25.02;;;4.70;99.90;;;;;;4900465;29;20412;-85
2022/03/26 01:17:27;;;;;;;43.40;26.33;;;4.70;99.90;;;;;;4916167;29;20423;-85
2022/03/26 01:19:55;;;;;;;44.35;26.60;;;4.60;99.90;;;;;;4916130;29;20404;-86
2022/03/26 01:22:23;;;;;;;44.10;26.33;;;4.70;99.90;;;;;;4915958;29;20407;-85
2022/03/26 01:24:50;;;;;;;42.85;26.10;;;4.60;99.90;;;;;;4915935;29;20812;-86
2022/03/26 01:27:18;;;;;;;46.13;29.30;;;4.60;99.90;;;;;;4931506;29;20396;-86
2022/03/26 01:29:46;;;;;;;43.72;27.17;;;4.60;99.90;;;;;;4931315;29;20785;-86
2022/03/26 01:32:13;;;;;;;41.45;26.10;;;4.70;99.90;;;;;;4915778;29;20402;-85
2022/03/26 01:34:41;;;;;;;43.33;27.37;;;4.50;99.90;;;;;;4915883;29;20490;-85
2022/03/26 01:37:09;;;;;;;46.78;28.13;;;4.50;99.90;;;;;;4900042;29;20400;-85
2022/03/26 01:39:36;;;;;;;45.00;27.20;;;4.50;99.90;;;;;;4915655;29;20455;-86
2022/03/26 01:42:06;;;;;;;43.03;27.13;;;4.40;99.90;;;;;;4900065;29;20426;-85
2022/03/26 01:44:35;;;;;;;43.40;27.63;;;4.40;99.90;;;;;;4916626;29;20529;-86
2022/03/26 01:47:03;;;;;;;42.70;28.00;;;4.50;99.90;;;;;;4899800;29;20404;-86
2022/03/26 01:49:32;;;;;;;42.22;26.05;;;4.50;99.90;;;;;;4915336;29;20435;-86
2022/03/26 01:52:00;;;;;;;41.90;26.17;;;4.50;99.90;;;;;;4931059;29;20407;-86
2022/03/26 01:54:29;;;;;;;44.97;26.95;;;4.50;99.90;;;;;;4930970;29;20421;-85
2022/03/26 01:56:57;;;;;;;43.78;27.13;;;4.40;99.90;;;;;;4899717;29;20779;-85
2022/03/26 01:59:29;;;;;;;43.97;26.70;;;4.40;99.90;;;;;;4915255;29;20408;-86
2022/03/26 02:01:56;;;;;;;42.78;25.48;;;4.40;99.90;;;;;;4915242;29;20403;-85
2022/03/26 02:04:25;;;;;;;45.20;25.70;;;4.50;99.90;;;;;;4899639;29;20462;-85
2022/03/26 02:06:52;;;;;;;41.75;26.55;;;4.40;99.90;;;;;;4931171;29;20498;-86
2022/03/26 02:09:21;;;;;;;44.30;27.20;;;4.40;99.90;;;;;;4915287;29;20694;-86
2022/03/26 02:11:48;;;;;;;44.47;26.63;;;4.40;99.90;;;;;;4915139;29;20475;-87
2022/03/26 02:14:16;;;;;;;40.67;26.00;;;4.30;99.90;;;;;;4899413;29;20502;-85
2022/03/26 02:16:44;;;;;;;38.75;25.10;;;4.40;99.90;;;;;;4930780;29;20831;-86
2022/03/26 02:19:12;;;;;;;41.30;25.58;;;4.40;99.90;;;;;;4930860;29;20399;-88
2022/03/26 02:21:40;;;;;;;40.95;25.10;;;4.30;99.90;;;;;;4916217;29;20404;-88
2022/03/26 02:24:08;;;;;;;40.47;24.90;;;4.30;99.90;;;;;;4899397;29;20463;-87
2022/03/26 02:26:37;;;;;;;41.27;25.03;;;4.30;99.90;;;;;;4930638;29;21058;-87
2022/03/26 02:29:08;;;;;;;38.72;24.17;;;4.30;99.90;;;;;;4915044;29;20411;-87
2022/03/26 02:31:37;;;;;;;40.83;24.63;;;4.30;99.90;;;;;;4914806;29;20423;-87
2022/03/26 02:34:07;;;;;;;38.10;23.95;;;4.30;99.90;;;;;;4930866;29;20415;-87
2022/03/26 02:36:35;;;;;;;40.42;23.48;;;4.40;99.90;;;;;;4915820;29;20439;-87
2022/03/26 02:39:05;;;;;;;39.78;23.25;;;4.40;99.90;;;;;;4914668;29;20860;-87
2022/03/26 02:41:36;;;;;;;35.60;22.73;;;4.30;99.90;;;;;;4899084;29;20399;-87
2022/03/26 02:44:04;;;;;;;37.95;23.45;;;4.30;99.90;;;;;;4914882;29;20442;-87
2022/03/26 02:46:32;;;;;;;37.08;22.23;;;4.40;99.90;;;;;;4898933;29;20477;-87
2022/03/26 02:48:59;;;;;;;38.88;22.60;;;4.30;99.90;;;;;;4914543;29;20410;-87
2022/03/26 02:51:27;;;;;;;35.65;21.77;;;4.40;99.90;;;;;;4929951;29;20503;-87
2022/03/26 02:53:55;;;;;;;34.95;21.10;;;4.20;99.90;;;;;;4914535;29;20467;-87
2022/03/26 02:56:22;;;;;;;36.03;21.58;;;4.30;99.90;;;;;;4898815;29;20400;-87
2022/03/26 02:58:50;;;;;;;36.10;20.40;;;4.40;99.90;;;;;;4930103;29;20499;-87
2022/03/26 03:01:19;;;;;;;37.45;22.55;;;4.20;99.90;;;;;;4898562;29;20431;-85
2022/03/26 03:03:48;;;;;;;34.60;20.67;;;4.20;99.90;;;;;;4914310;29;20403;-87
2022/03/26 03:06:16;;;;;;;34.63;20.95;;;4.20;99.90;;;;;;4898207;29;20453;-88
2022/03/26 03:08:43;;;;;;;35.60;20.25;;;4.30;99.90;;;;;;4914190;29;20406;-87
2022/03/26 03:11:11;;;;;;;35.13;20.52;;;4.20;99.90;;;;;;4898681;29;20421;-86
2022/03/26 03:13:39;;;;;;;30.48;18.85;;;4.30;99.90;;;;;;4929968;29;20420;-85
2022/03/26 03:16:07;;;;;;;33.30;19.08;;;4.30;99.90;;;;;;4914268;29;20403;-85
2022/03/26 03:18:35;;;;;;;28.50;16.92;;;4.30;99.90;;;;;;4919456;29;20510;-86
2022/03/26 03:21:08;;;;;;;30.40;16.98;;;4.20;99.90;;;;;;4935654;29;20411;-86
2022/03/26 03:23:35;;;;;;;29.92;16.77;;;4.30;99.90;;;;;;4920305;29;20403;-86
2022/03/26 03:26:03;;;;;;;26.60;15.13;;;4.30;99.90;;;;;;4920637;29;20829;-86
2022/03/26 03:28:31;;;;;;;25.83;14.70;;;4.40;99.90;;;;;;4921585;29;20402;-86
2022/03/26 03:30:58;;;;;;;24.67;13.40;;;4.40;99.90;;;;;;4920420;29;20411;-86
2022/03/26 03:33:26;;;;;;;21.98;12.80;;;4.30;99.90;;;;;;4904734;29;20774;-86
2022/03/26 03:35:55;;;;;;;24.80;12.02;;;4.30;99.90;;;;;;4920281;29;20741;-86
2022/03/26 03:38:22;;;;;;;19.40;10.45;;;4.30;99.90;;;;;;4904787;29;20482;-85
2022/03/26 03:40:50;;;;;;;18.30;9.73;;;4.30;99.90;;;;;;4920514;29;20400;-86
2022/03/26 03:43:18;;;;;;;18.27;8.77;;;4.30;99.90;;;;;;4920331;29;20993;-87
2022/03/26 03:45:46;;;;;;;18.40;8.75;;;4.30;99.90;;;;;;4936001;29;20456;-86
2022/03/26 03:48:13;;;;;;;14.50;8.00;;;4.30;99.90;;;;;;4920440;29;20459;-86
2022/03/26 03:50:41;;;;;;;15.80;7.70;;;4.30;99.90;;;;;;4920056;29;20762;-86
2022/03/26 03:53:09;;;;;;;15.18;7.57;;;4.30;99.90;;;;;;4920167;29;20396;-86
2022/03/26 03:55:37;;;;;;;15.60;7.45;;;4.30;99.90;;;;;;4920117;29;20485;-86
2022/03/26 03:58:04;;;;;;;13.93;7.00;;;4.20;99.90;;;;;;4921239;29;20419;-85
2022/03/26 04:00:32;;;;;;;12.20;6.18;;;4.30;99.90;;;;;;4905086;29;20438;-86
2022/03/26 04:03:00;;;;;;;11.57;5.40;;;4.30;99.90;;;;;;4919980;29;20414;-86
2022/03/26 04:05:28;;;;;;;9.43;5.32;;;4.20;99.90;;;;;;4921221;29;20666;-86
2022/03/26 04:07:56;;;;;;;11.57;5.50;;;4.20;99.90;;;;;;4904885;29;20442;-86
2022/03/26 04:10:24;;;;;;;10.90;5.18;;;4.20;99.90;;;;;;4904390;29;20462;-86
2022/03/26 04:12:57;;;;;;;8.00;4.13;;;4.20;99.90;;;;;;4920911;29;20443;-86
2022/03/26 04:15:25;;;;;;;7.97;3.83;;;4.20;99.90;;;;;;4919893;29;20403;-86
2022/03/26 04:17:54;;;;;;;9.80;3.90;;;4.20;99.90;;;;;;4919898;29;20414;-86
2022/03/26 04:20:22;;;;;;;7.10;3.47;;;4.20;99.90;;;;;;4927080;29;20446;-86
2022/03/26 04:22:50;;;;;;;7.85;2.95;;;4.10;99.90;;;;;;4904273;29;20894;-86
2022/03/26 04:25:18;;;;;;;7.00;2.60;;;4.10;99.90;;;;;;4919961;29;20463;-86
2022/03/26 04:27:46;;;;;;;6.63;2.50;;;4.10;99.90;;;;;;4904228;29;20411;-86
2022/03/26 04:30:14;;;;;;;8.77;3.08;;;4.10;99.90;;;;;;4915841;29;20428;-86
2022/03/26 04:32:42;;;;;;;5.57;2.70;;;4.10;99.90;;;;;;4901405;29;20467;-86
2022/03/26 04:35:10;;;;;;;6.68;2.65;;;4.10;99.90;;;;;;4901205;29;20396;-86
2022/03/26 04:37:38;;;;;;;7.55;1.85;;;4.00;99.90;;;;;;4918033;29;20399;-86
2022/03/26 04:40:08;;;;;;;6.50;2.00;;;3.90;99.90;;;;;;4901197;29;20418;-86
2022/03/26 04:42:36;;;;;;;6.57;1.92;;;3.90;99.90;;;;;;4916629;29;20438;-86
2022/03/26 04:45:04;;;;;;;7.20;1.77;;;3.90;99.90;;;;;;4901018;29;20406;-86
2022/03/26 04:47:31;;;;;;;5.50;1.60;;;3.90;99.90;;;;;;4916155;29;20478;-86
2022/03/26 04:49:59;;;;;;;6.70;1.90;;;3.80;99.90;;;;;;4900826;29;20415;-86
2022/03/26 04:52:27;;;;;;;5.97;1.45;;;3.80;99.90;;;;;;4901831;29;20412;-86
2022/03/26 04:54:55;;;;;;;6.13;1.40;;;3.70;99.90;;;;;;4916448;29;20400;-86
2022/03/26 04:57:23;;;;;;;9.68;1.83;;;3.70;99.90;;;;;;4917326;29;20917;-85
2022/03/26 04:59:51;;;;;;;6.45;1.25;;;3.70;99.90;;;;;;4942562;29;20417;-87
2022/03/26 05:02:18;;;;;;;6.53;1.57;;;3.70;99.90;;;;;;4936559;29;20414;-86
2022/03/26 05:04:46;;;;;;;5.97;1.27;;;3.70;99.90;;;;;;4935260;29;20404;-86
2022/03/26 05:10:00;;;;;;;5.40;1.50;;;3.70;99.90;;;;;;4935875;29;20410;-86
2022/03/26 05:12:27;;;;;;;8.10;1.55;;;3.60;99.90;;;;;;4935101;29;20441;-86
2022/03/26 05:14:55;;;;;;;5.30;1.20;;;3.70;99.90;;;;;;4919305;29;20511;-86
2022/03/26 05:17:22;;;;;;;9.10;1.45;;;3.60;99.90;;;;;;4934968;29;20406;-86
2022/03/26 05:19:50;;;;;;;7.10;1.55;;;3.60;99.90;;;;;;4934844;29;20449;-86
2022/03/26 05:22:18;;;;;;;5.60;1.30;;;3.60;99.90;;;;;;4935027;29;20505;-86
2022/03/26 05:24:45;;;;;;;7.32;1.35;;;3.60;99.90;;;;;;4934715;29;20577;-86
2022/03/26 05:27:13;;;;;;;4.50;1.40;;;3.60;99.90;;;;;;4936361;29;20436;-86
2022/03/26 05:29:41;;;;;;;7.80;1.70;;;3.60;99.90;;;;;;4934864;29;20398;-86
2022/03/26 05:32:09;;;;;;;6.43;1.25;;;3.50;99.90;;;;;;4934566;29;20409;-86
2022/03/26 05:34:36;;;;;;;7.55;1.50;;;3.50;99.90;;;;;;4934636;29;20399;-86
2022/03/26 05:37:04;;;;;;;7.13;1.45;;;3.50;99.90;;;;;;4934601;29;20667;-86
2022/03/26 05:39:32;;;;;;;6.30;1.50;;;3.60;99.90;;;;;;4934441;29;20501;-86
2022/03/26 05:42:00;;;;;;;6.05;1.10;;;3.60;99.90;;;;;;4918465;29;20952;-85
2022/03/26 05:44:28;;;;;;;6.13;1.33;;;3.50;99.90;;;;;;4934558;29;20401;-86
2022/03/26 05:46:56;;;;;;;6.13;1.38;;;3.60;99.90;;;;;;4934566;29;20410;-85
2022/03/26 05:49:24;;;;;;;7.00;1.33;;;3.60;99.90;;;;;;4934508;29;20402;-86
2022/03/26 05:51:51;;;;;;;8.02;1.33;;;3.50;99.90;;;;;;4934235;29;20414;-86
2022/03/26 05:54:19;;;;;;;5.15;1.45;;;3.60;99.90;;;;;;4934452;29;20402;-86
2022/03/26 05:56:53;;;;;;;4.97;1.20;;;3.60;99.90;;;;;;4922324;29;20482;-86
2022/03/26 05:59:23;;;;;;;5.72;1.20;;;3.60;99.90;;;;;;4934077;29;20410;-86
2022/03/26 06:01:53;;;;;;;6.13;1.48;;;3.60;99.90;;;;;;4950328;29;20884;-86
2022/03/26 06:04:23;;;;;;;6.28;1.20;;;3.60;99.90;;;;;;4950210;29;20401;-86
2022/03/26 06:06:51;;;;;;;7.45;1.27;;;3.60;99.90;;;;;;4911646;29;20427;-86
2022/03/26 06:09:19;;;;;;;5.33;1.03;;;3.60;99.90;;;;;;4933640;29;20417;-86
2022/03/26 06:11:46;;;;;;;6.10;1.10;;;3.60;99.90;;;;;;4914703;29;20997;-86
2022/03/26 06:14:15;;;;;;;6.60;1.20;;;3.60;99.90;;;;;;4942732;29;20415;-85
2022/03/26 06:16:44;;;;;;;5.90;0.95;;;3.60;99.90;;;;;;4948208;28;20502;-86
2022/03/26 06:19:13;;;;;;;6.38;1.05;;;3.60;99.90;;;;;;4933785;29;20422;-86
2022/03/26 06:21:41;;;;;;;7.05;1.35;;;3.60;99.90;;;;;;4933942;29;20421;-87
2022/03/26 06:24:10;;;;;;;10.50;1.30;;;3.60;99.90;;;;;;4933838;29;20398;-86
2022/03/26 06:26:39;;;;;;;5.83;1.13;;;3.60;99.90;;;;;;4949633;29;20394;-87
2022/03/26 06:29:06;;;;;;;7.82;1.40;;;3.70;99.90;;;;;;4933957;29;20440;-87
2022/03/26 06:31:34;;;;;;;8.20;1.30;;;3.70;99.90;;;;;;4933598;29;20406;-86
2022/03/26 06:34:02;;;;;;;7.20;1.30;;;3.70;99.90;;;;;;4933493;29;20402;-86
2022/03/26 06:36:30;;;;;;;6.07;1.15;;;3.80;99.90;;;;;;4911813;29;20559;-85
2022/03/26 06:39:00;;;;;;;4.30;0.83;;;3.80;99.90;;;;;;4923784;29;20438;-86
2022/03/26 06:41:28;;;;;;;9.50;1.20;;;3.80;99.90;;;;;;4927994;29;20399;-86
2022/03/26 06:43:55;;;;;;;6.22;0.93;;;3.80;99.90;;;;;;4926453;29;20494;-85
2022/03/26 06:46:23;;;;;;;6.00;1.00;;;3.80;99.90;;;;;;4955129;28;20390;-85
2022/03/26 06:48:51;;;;;;;5.32;0.93;;;3.80;99.90;;;;;;4918489;29;20478;-86
2022/03/26 06:51:19;;;;;;;4.67;1.10;;;3.80;99.90;;;;;;4914110;29;20423;-86
2022/03/26 06:53:47;;;;;;;6.65;1.00;;;3.70;99.90;;;;;;4927013;29;20414;-85
2022/03/26 06:56:14;;;;;;;8.40;1.30;;;3.80;99.90;;;;;;4933288;29;20761;-86
2022/03/26 06:58:44;;;;;;;6.85;1.25;;;3.80;99.90;;;;;;4933487;29;20403;-86
2022/03/26 07:01:12;;;;;;;4.05;0.90;;;3.80;99.90;;;;;;4949107;29;20789;-86
2022/03/26 07:03:40;;;;;;;5.95;1.15;;;3.80;99.90;;;;;;4933158;29;20406;-86
2022/03/26 07:06:08;;;;;;;5.53;1.23;;;3.80;99.90;;;;;;4946163;29;20420;-86
2022/03/26 07:08:36;;;;;;;4.80;0.85;;;3.80;99.90;;;;;;4933249;29;20402;-86
2022/03/26 07:11:03;;;;;;;6.50;1.23;;;3.80;99.90;;;;;;4933210;29;20394;-86
2022/03/26 07:13:31;;;;;;;5.90;1.27;;;3.80;99.90;;;;;;4933227;29;20943;-86
2022/03/26 07:15:58;;;;;;;9.20;1.42;;;3.80;99.90;;;;;;4933124;29;20406;-86
2022/03/26 07:18:26;;;;;;;7.68;1.30;;;3.80;99.90;;;;;;4948999;29;20419;-86
2022/03/26 07:20:58;;;;;;;4.43;0.90;;;3.80;99.90;;;;;;4933113;29;20404;-85
2022/03/26 07:23:27;;;;;;;6.43;0.93;;;3.90;99.90;;;;;;4933115;29;20433;-86
2022/03/26 07:25:55;;;;;;;7.00;1.13;;;3.90;99.90;;;;;;4917414;29;20457;-86
2022/03/26 07:28:23;;;;;;;6.65;1.20;;;3.90;99.90;;;;;;4933116;29;20430;-87
2022/03/26 07:30:51;;;;;;;5.10;1.30;;;3.90;99.90;;;;;;4948993;29;20453;-86
2022/03/26 07:33:18;;;;;;;5.35;0.98;;;3.90;99.90;;;;;;4919876;29;20413;-86
2022/03/26 07:35:46;;;;;;;7.80;1.40;;;3.80;99.90;;;;;;4933052;29;20453;-87
2022/03/26 07:38:14;;;;;;;7.85;1.15;;;3.90;99.90;;;;;;4917472;29;20901;-87
2022/03/26 07:40:42;;;;;;;6.10;0.80;;;3.90;99.90;;;;;;4933148;29;20413;-86
2022/03/26 07:43:10;;;;;;;6.40;1.00;;;3.90;99.90;;;;;;4917554;29;20908;-87
2022/03/26 07:45:37;;;;;;;4.72;0.90;;;3.90;99.90;;;;;;4932958;29;20888;-86
2022/03/26 07:48:06;;;;;;;4.77;0.93;;;3.90;99.90;;;;;;4933043;29;20401;-87
2022/03/26 07:50:34;;;;;;;8.27;1.20;;;3.90;99.90;;;;;;4932991;29;20417;-87
2022/03/26 07:53:01;;;;;;;3.83;0.97;;;3.90;99.90;;;;;;4948882;29;20488;-86
2022/03/26 07:55:29;;;;;;;4.53;0.77;;;3.80;99.90;;;;;;4934416;29;20480;-86
2022/03/26 07:57:57;;;;;;;7.40;1.00;;;3.90;99.90;;;;;;4932964;29;20415;-87
2022/03/26 08:00:24;;;;;;;4.53;0.90;;;3.90;99.90;;;;;;4933906;29;20412;-87
2022/03/26 08:02:52;;;;;;;7.53;0.80;;;3.90;99.90;;;;;;4932017;29;20994;-86
2022/03/26 08:05:21;;;;;;;6.40;0.93;;;3.90;99.90;;;;;;4936677;29;20947;-87
2022/03/26 08:07:48;;;;;;;5.60;0.90;;;4.00;99.90;;;;;;4936421;29;20831;-86
2022/03/26 08:10:16;;;;;;;7.03;0.93;;;4.00;99.90;;;;;;4936353;29;20401;-86
2022/03/26 08:12:44;;;;;;;7.30;1.40;;;4.00;99.90;;;;;;4935469;29;20420;-86
2022/03/26 08:15:12;;;;;;;7.45;1.10;;;3.90;99.90;;;;;;4936268;29;20401;-86
2022/03/26 08:17:40;;;;;;;6.82;1.20;;;4.00;99.90;;;;;;4936138;29;20393;-86
2022/03/26 08:20:08;;;;;;;4.05;0.98;;;4.00;99.90;;;;;;4926877;29;20790;-86
2022/03/26 08:22:36;;;;;;;6.53;0.85;;;4.00;99.90;;;;;;4901554;29;20494;-86
2022/03/26 08:25:04;;;;;;;5.43;1.00;;;4.00;99.90;;;;;;4901480;29;20894;-86
2022/03/26 08:27:32;;;;;;;6.50;0.80;;;4.00;99.90;;;;;;4932798;29;20408;-86
2022/03/26 08:29:59;;;;;;;5.75;0.73;;;4.00;99.90;;;;;;4918305;29;20911;-86
2022/03/26 08:32:27;;;;;;;4.22;0.98;;;4.00;99.90;;;;;;4917005;29;20487;-87
2022/03/26 08:34:55;;;;;;;5.75;0.98;;;4.00;99.90;;;;;;4901442;29;20471;-87
2022/03/26 08:37:23;;;;;;;4.85;0.70;;;4.00;99.90;;;;;;4901330;29;20411;-87
2022/03/26 08:39:51;;;;;;;5.05;1.10;;;4.00;99.90;;;;;;4932613;29;20463;-87
2022/03/26 08:42:18;;;;;;;5.32;0.90;;;4.00;99.90;;;;;;4901368;29;20412;-86
2022/03/26 08:44:46;;;;;;;5.03;0.80;;;3.90;99.90;;;;;;4916714;29;20469;-86
2022/03/26 08:47:14;;;;;;;3.83;0.75;;;3.90;99.90;;;;;;4920579;29;20746;-87
2022/03/26 08:49:44;;;;;;;4.82;0.80;;;4.00;99.90;;;;;;4919923;29;20809;-87
2022/03/26 08:52:12;;;;;;;6.07;0.90;;;3.90;99.90;;;;;;4935567;29;20432;-86
2022/03/26 08:54:40;;;;;;;3.90;0.68;;;3.90;99.90;;;;;;4932320;29;20412;-86
2022/03/26 08:57:08;;;;;;;9.48;1.02;;;3.90;99.90;;;;;;4947381;29;20415;-86
2022/03/26 08:59:36;;;;;;;2.20;0.50;;;3.80;99.90;;;;;;4923306;29;20966;-86
2022/03/26 09:02:04;;;;;;;4.50;0.82;;;3.80;99.90;;;;;;4918550;29;20949;-86
2022/03/26 09:04:32;;;;;;;3.58;0.57;;;3.80;99.90;;;;;;4910582;29;20907;-86
2022/03/26 09:07:00;;;;;;;4.72;0.77;;;3.70;99.90;;;;;;4916219;29;20788;-85
2022/03/26 09:09:28;;;;;;;5.80;0.90;;;3.70;99.90;;;;;;4923508;29;20957;-86
2022/03/26 09:11:56;;;;;;;6.35;0.88;;;3.70;99.90;;;;;;4935109;29;20401;-85
2022/03/26 09:14:24;;;;;;;4.53;0.68;;;3.70;99.90;;;;;;4950981;29;20390;-86
2022/03/26 09:16:52;;;;;;;4.13;0.73;;;3.70;99.90;;;;;;4950730;29;20814;-86
2022/03/26 09:19:20;;;;;;;8.30;0.93;;;3.60;99.90;;;;;;4950834;29;20401;-86
2022/03/26 09:21:49;;;;;;;4.72;0.90;;;3.60;99.90;;;;;;4950182;29;20499;-86
2022/03/26 09:24:17;;;;;;;5.70;0.80;;;3.60;99.90;;;;;;4931816;29;20411;-86
2022/03/26 09:26:45;;;;;;;6.63;1.15;;;3.60;99.90;;;;;;4932227;29;20492;-86
2022/03/26 09:29:13;;;;;;;7.38;0.90;;;3.60;99.90;;;;;;4925913;29;20492;-86
2022/03/26 09:31:41;;;;;;;6.07;1.00;;;3.50;99.90;;;;;;4932318;29;20431;-86
2022/03/26 09:34:09;;;;;;;3.70;0.52;;;3.60;99.90;;;;;;4934825;29;20500;-86
2022/03/26 09:36:36;;;;;;;5.28;0.70;;;3.60;99.90;;;;;;4934348;29;20402;-86
2022/03/26 09:39:04;;;;;;;3.80;0.70;;;3.50;99.90;;;;;;4934862;29;20406;-85
2022/03/26 09:41:33;;;;;;;5.38;0.60;;;3.50;99.90;;;;;;4935865;29;20575;-86
2022/03/26 09:44:01;;;;;;;4.28;0.90;;;3.50;99.90;;;;;;4934810;29;20398;-86
2022/03/26 09:46:29;;;;;;;3.58;0.82;;;3.50;99.90;;;;;;4927083;29;20407;-86
2022/03/26 09:48:57;;;;;;;4.85;1.10;;;3.40;99.90;;;;;;4935605;29;20448;-86
2022/03/26 09:51:25;;;;;;;6.18;0.80;;;3.40;99.90;;;;;;4941027;29;20490;-87
2022/03/26 09:53:53;;;;;;;4.05;1.10;;;3.40;99.90;;;;;;4923419;29;20497;-86
2022/03/26 09:56:23;;;;;;;5.10;0.97;;;3.30;99.90;;;;;;4934003;29;20480;-86
2022/03/26 09:58:56;;;;;;;4.60;0.90;;;3.30;99.90;;;;;;4932912;29;20446;-84
2022/03/26 10:01:25;;;;;;;7.47;1.10;;;3.40;99.90;;;;;;4934555;29;20410;-87
2022/03/26 10:04:18;;;;;;;5.40;0.80;;;3.40;99.90;;;;;;4966350;28;20445;-86
2022/03/26 10:06:54;;;;;;;5.55;0.90;;;3.40;99.90;;;;;;4941358;29;20431;-86
2022/03/26 10:09:39;;;;;;;4.80;0.82;;;3.40;99.90;;;;;;4929188;29;20423;-86
2022/03/26 10:12:18;;;;;;;4.23;0.80;;;3.40;99.90;;;;;;4899442;29;20894;-86
2022/03/26 10:14:53;;;;;;;6.55;0.90;;;3.40;99.90;;;;;;4930815;29;20417;-87
2022/03/26 10:17:25;;;;;;;5.90;1.00;;;3.40;99.90;;;;;;4915201;29;20404;-86
2022/03/26 10:20:04;;;;;;;5.93;0.80;;;3.40;99.90;;;;;;4927519;29;20402;-86
2022/03/26 10:22:36;;;;;;;5.50;1.00;;;3.30;99.90;;;;;;4932259;29;20398;-85
2022/03/26 10:25:09;;;;;;;6.78;0.80;;;3.30;99.90;;;;;;4933928;29;20398;-86
2022/03/26 10:27:41;;;;;;;5.50;0.90;;;3.40;99.90;;;;;;4932852;29;20421;-86
2022/03/26 10:30:15;;;;;;;5.53;0.95;;;3.40;99.90;;;;;;4918008;29;20916;-86
2022/03/26 10:32:45;;;;;;;6.03;1.08;;;3.30;99.90;;;;;;4933632;29;20414;-86
2022/03/26 10:35:19;;;;;;;6.30;0.90;;;3.30;99.90;;;;;;4917961;29;20398;-86
2022/03/26 10:37:58;;;;;;;6.65;1.08;;;3.20;99.90;;;;;;4934940;29;20546;-86
2022/03/26 10:40:33;;;;;;;4.63;0.80;;;3.30;99.90;;;;;;4933586;29;20784;-86
2022/03/26 10:43:08;;;;;;;5.50;0.77;;;3.50;99.90;;;;;;4934729;29;20406;-86
2022/03/26 10:45:50;;;;;;;7.28;1.17;;;3.80;99.90;;;;;;4934845;29;20408;-86
2022/03/26 10:48:27;;;;;;;3.83;0.77;;;3.70;99.90;;;;;;4933489;29;20493;-85
2022/03/26 10:50:57;;;;;;;5.50;0.90;;;3.70;99.90;;;;;;4949363;29;20409;-86
2022/03/26 10:53:36;;;;;;;3.75;0.70;;;3.80;99.90;;;;;;4933631;29;20416;-85
2022/03/26 10:56:06;;;;;;;6.57;0.90;;;4.00;99.90;;;;;;4917918;29;20481;-86
2022/03/26 10:58:36;;;;;;;4.20;0.80;;;4.10;99.90;;;;;;4933622;29;20394;-86
2022/03/26 11:01:03;;;;;;;3.90;0.60;;;4.10;99.90;;;;;;4949177;29;20430;-85
2022/03/26 11:03:34;;;;;;;7.38;0.80;;;4.00;99.90;;;;;;4949024;29;20457;-86
2022/03/26 11:06:06;;;;;;;2.90;0.60;;;4.00;99.90;;;;;;4933528;29;20457;-86
2022/03/26 11:08:36;;;;;;;6.22;0.85;;;4.00;99.90;;;;;;4942224;29;20509;-85
2022/03/26 11:11:08;;;;;;;6.10;0.70;;;4.10;99.90;;;;;;4917500;29;20435;-85
2022/03/26 11:13:46;;;;;;;3.05;0.70;;;4.00;99.90;;;;;;4934321;29;20931;-86
2022/03/26 11:16:58;;;;;;;2.90;0.52;;;3.90;99.90;;;;;;4933390;29;20393;-85
2022/03/26 11:19:26;;;;;;;9.23;0.88;;;4.00;99.90;;;;;;4930290;29;20919;-87
2022/03/26 11:22:08;;;;;;;4.25;0.60;;;4.20;99.90;;;;;;4911448;29;20446;-88
2022/03/26 11:25:02;;;;;;;3.42;0.75;;;4.20;99.90;;;;;;4914413;29;20400;-87
2022/03/26 11:27:49;;;;;;;4.55;0.65;;;4.50;99.90;;;;;;4914695;29;20455;-88
2022/03/26 11:30:54;;;;;;;3.30;0.60;;;4.60;99.90;;;;;;4914229;29;20977;-88
2022/03/26 11:33:22;;;;;;;2.05;0.45;;;4.50;99.90;;;;;;4915469;29;20914;-87
2022/03/26 11:35:57;;;;;;;3.30;0.50;;;4.60;99.90;;;;;;4914270;29;20396;-87
2022/03/26 11:38:30;;;;;;;4.65;0.50;;;4.70;99.90;;;;;;4899655;29;20403;-87
2022/03/26 11:41:05;;;;;;;5.75;0.60;;;4.60;99.90;;;;;;4919326;29;20395;-86
2022/03/26 11:43:45;;;;;;;2.92;0.50;;;4.70;99.90;;;;;;4933734;29;20392;-87
2022/03/26 11:52:18;;;;;;;3.75;0.65;;;4.80;99.90;;;;;;4931379;29;20784;-88
2022/03/26 11:54:48;;;;;;;4.20;0.80;;;4.70;99.90;;;;;;4933586;29;20419;-88
2022/03/26 11:57:20;;;;;;;6.10;0.60;;;4.90;99.90;;;;;;4917953;29;20408;-88
2022/03/26 11:59:48;;;;;;;3.25;0.75;;;5.00;99.90;;;;;;4917634;29;20455;-87
2022/03/26 12:02:28;;;;;;;3.15;0.60;;;4.90;99.90;;;;;;4903286;29;20703;-87
2022/03/26 12:08:18;;;;;;;3.63;0.50;;;4.70;99.90;;;;;;4929590;29;20442;-87
2022/03/26 12:10:47;;;;;;;3.97;0.63;;;4.70;99.90;;;;;;4933373;29;20497;-87
2022/03/26 12:13:21;;;;;;;4.43;0.90;;;4.60;99.90;;;;;;4917670;29;20419;-88
2022/03/26 12:16:04;;;;;;;4.65;0.60;;;4.60;99.90;;;;;;4922807;29;20512;-88
2022/03/26 12:18:40;;;;;;;5.95;0.75;;;4.30;99.90;;;;;;4932406;29;20409;-87
2022/03/26 12:21:20;;;;;;;4.73;0.73;;;4.20;99.90;;;;;;4944005;29;20461;-87
2022/03/26 12:23:49;;;;;;;5.68;0.90;;;4.10;99.90;;;;;;4915789;29;20477;-87
2022/03/26 12:26:17;;;;;;;5.03;0.90;;;4.10;99.90;;;;;;4932943;29;20417;-88
2022/03/26 12:28:45;;;;;;;4.13;0.60;;;4.10;99.90;;;;;;4908396;29;20989;-88
2022/03/26 12:31:14;;;;;;;3.65;0.60;;;4.00;99.90;;;;;;4928262;29;20409;-87
2022/03/26 12:33:44;;;;;;;3.80;0.60;;;3.90;99.90;;;;;;4929189;29;20419;-88
2022/03/26 12:36:14;;;;;;;4.70;0.88;;;3.90;99.90;;;;;;4927255;29;20420;-87
2022/03/26 12:38:50;;;;;;;4.50;0.77;;;4.00;99.90;;;;;;4927964;29;20413;-87
2022/03/26 12:41:18;;;;;;;7.18;1.20;;;3.90;99.90;;;;;;4918397;29;20402;-87
2022/03/26 12:43:54;;;;;;;3.00;0.80;;;3.90;99.90;;;;;;4920465;29;20406;-87
2022/03/26 12:46:21;;;;;;;4.18;0.90;;;4.00;99.90;;;;;;4936057;29;20421;-87
2022/03/26 12:48:50;;;;;;;6.45;1.00;;;4.10;99.90;;;;;;4935968;29;20497;-87
2022/03/26 12:51:18;;;;;;;3.95;0.70;;;4.10;99.90;;;;;;4919166;29;20402;-87
2022/03/26 12:53:46;;;;;;;8.55;0.80;;;4.00;99.90;;;;;;4937058;29;20417;-87
2022/03/26 12:56:14;;;;;;;4.72;0.80;;;4.00;99.90;;;;;;4935989;29;20738;-88
2022/03/26 12:58:56;;;;;;;5.57;0.90;;;3.90;99.90;;;;;;4935896;29;20526;-88
2022/03/26 13:01:25;;;;;;;6.05;0.73;;;3.80;99.90;;;;;;4935215;29;20409;-84
2022/03/26 13:03:54;;;;;;;6.78;1.00;;;3.70;99.90;;;;;;4935520;29;20433;-85
2022/03/26 13:06:24;;;;;;;8.15;1.05;;;3.60;99.90;;;;;;4935294;29;20781;-85
2022/03/26 13:08:54;;;;;;;4.70;0.90;;;3.60;99.90;;;;;;4935208;29;20750;-85
2022/03/26 13:11:24;;;;;;;6.68;1.20;;;3.70;99.90;;;;;;4935197;29;20889;-85
2022/03/26 13:13:56;;;;;;;7.47;1.00;;;3.70;99.90;;;;;;4936650;29;20440;-85